sensor_id;sensor_type;location;lat;lon;timestamp;P1;durP1;ratioP1;P2;durP2;ratioP2
76157;SDS011;64907;51.574;6.502;2023-03-23T00:01:01;3.83;;;3.40;;
76157;SDS011;64907;51.574;6.502;2023-03-23T00:03:27;3.38;;;3.17;;
76157;SDS011;64907;51.574;6.502;2023-03-23T00:05:53;3.67;;;2.65;;
76157;SDS011;64907;51.574;6.502;2023-03-23T00:08:27;5.40;;;3.35;;
76157;SDS011;64907;51.574;6.502;2023-03-23T00:10:52;3.80;;;3.40;;
76157;SDS011;64907;51.574;6.502;2023-03-23T00:13:21;6.15;;;3.33;;
76157;SDS011;64907;51.574;6.502;2023-03-23T00:15:46;5.35;;;3.42;;
76157;SDS011;64907;51.574;6.502;2023-03-23T00:18:13;3.25;;;2.95;;
76157;SDS011;64907;51.574;6.502;2023-03-23T00:20:45;4.28;;;3.03;;
76157;SDS011;64907;51.574;6.502;2023-03-23T00:23:13;3.95;;;3.28;;
76157;SDS011;64907;51.574;6.502;2023-03-23T00:25:47;3.90;;;2.92;;
76157;SDS011;64907;51.574;6.502;2023-03-23T00:28:12;2.97;;;2.70;;
76157;SDS011;64907;51.574;6.502;2023-03-23T00:30:38;3.30;;;2.75;;
76157;SDS011;64907;51.574;6.502;2023-03-23T00:33:03;4.55;;;3.72;;
76157;SDS011;64907;51.574;6.502;2023-03-23T00:35:29;3.17;;;2.97;;
76157;SDS011;64907;51.574;6.502;2023-03-23T00:37:55;3.42;;;3.10;;
76157;SDS011;64907;51.574;6.502;2023-03-23T00:40:21;2.90;;;2.78;;
76157;SDS011;64907;51.574;6.502;2023-03-23T00:42:47;3.30;;;3.00;;
76157;SDS011;64907;51.574;6.502;2023-03-23T00:45:13;3.63;;;2.80;;
76157;SDS011;64907;51.574;6.502;2023-03-23T00:47:40;4.60;;;2.85;;
76157;SDS011;64907;51.574;6.502;2023-03-23T00:50:06;3.33;;;3.08;;
76157;SDS011;64907;51.574;6.502;2023-03-23T00:52:32;3.33;;;3.13;;
76157;SDS011;64907;51.574;6.502;2023-03-23T00:54:57;4.43;;;3.10;;
76157;SDS011;64907;51.574;6.502;2023-03-23T00:57:23;4.43;;;3.23;;
76157;SDS011;64907;51.574;6.502;2023-03-23T00:59:50;3.55;;;3.35;;
76157;SDS011;64907;51.574;6.502;2023-03-23T01:02:16;3.88;;;3.25;;
76157;SDS011;64907;51.574;6.502;2023-03-23T01:04:42;3.65;;;3.35;;
76157;SDS011;64907;51.574;6.502;2023-03-23T01:07:13;3.88;;;3.50;;
76157;SDS011;64907;51.574;6.502;2023-03-23T01:09:38;3.38;;;3.15;;
76157;SDS011;64907;51.574;6.502;2023-03-23T01:12:10;3.40;;;3.10;;
76157;SDS011;64907;51.574;6.502;2023-03-23T01:14:35;7.35;;;3.55;;
76157;SDS011;64907;51.574;6.502;2023-03-23T01:17:00;4.88;;;3.33;;
76157;SDS011;64907;51.574;6.502;2023-03-23T01:19:25;3.03;;;2.83;;
76157;SDS011;64907;51.574;6.502;2023-03-23T01:21:50;4.10;;;3.67;;
76157;SDS011;64907;51.574;6.502;2023-03-23T01:24:16;3.60;;;3.30;;
76157;SDS011;64907;51.574;6.502;2023-03-23T01:26:41;4.03;;;3.72;;
76157;SDS011;64907;51.574;6.502;2023-03-23T01:29:06;5.15;;;3.83;;
76157;SDS011;64907;51.574;6.502;2023-03-23T01:31:31;4.70;;;3.80;;
76157;SDS011;64907;51.574;6.502;2023-03-23T01:33:57;6.25;;;3.83;;
76157;SDS011;64907;51.574;6.502;2023-03-23T01:36:31;4.38;;;3.63;;
76157;SDS011;64907;51.574;6.502;2023-03-23T01:38:58;4.32;;;3.60;;
76157;SDS011;64907;51.574;6.502;2023-03-23T01:41:23;3.88;;;3.50;;
76157;SDS011;64907;51.574;6.502;2023-03-23T01:46:26;4.13;;;3.72;;
76157;SDS011;64907;51.574;6.502;2023-03-23T01:48:52;5.03;;;3.63;;
76157;SDS011;64907;51.574;6.502;2023-03-23T01:51:18;4.47;;;4.07;;
76157;SDS011;64907;51.574;6.502;2023-03-23T01:53:46;3.38;;;3.17;;
76157;SDS011;64907;51.574;6.502;2023-03-23T01:56:12;4.70;;;3.30;;
76157;SDS011;64907;51.574;6.502;2023-03-23T01:58:38;3.85;;;3.50;;
76157;SDS011;64907;51.574;6.502;2023-03-23T02:01:05;3.90;;;3.70;;
76157;SDS011;64907;51.574;6.502;2023-03-23T02:03:32;3.58;;;3.38;;
76157;SDS011;64907;51.574;6.502;2023-03-23T02:05:59;5.93;;;3.75;;
76157;SDS011;64907;51.574;6.502;2023-03-23T02:08:26;5.28;;;3.80;;
76157;SDS011;64907;51.574;6.502;2023-03-23T02:10:53;3.45;;;3.25;;
76157;SDS011;64907;51.574;6.502;2023-03-23T02:13:18;4.15;;;3.85;;
76157;SDS011;64907;51.574;6.502;2023-03-23T02:25:55;6.95;;;3.70;;
76157;SDS011;64907;51.574;6.502;2023-03-23T02:31:02;4.35;;;3.40;;
76157;SDS011;64907;51.574;6.502;2023-03-23T02:33:49;3.97;;;3.63;;
76157;SDS011;64907;51.574;6.502;2023-03-23T02:36:23;3.45;;;3.25;;
76157;SDS011;64907;51.574;6.502;2023-03-23T02:41:21;3.88;;;3.58;;
76157;SDS011;64907;51.574;6.502;2023-03-23T02:43:47;4.05;;;3.70;;
76157;SDS011;64907;51.574;6.502;2023-03-23T02:46:14;4.88;;;3.70;;
76157;SDS011;64907;51.574;6.502;2023-03-23T02:48:40;7.68;;;4.85;;
76157;SDS011;64907;51.574;6.502;2023-03-23T02:51:07;4.43;;;3.90;;
76157;SDS011;64907;51.574;6.502;2023-03-23T02:53:34;3.80;;;3.60;;
76157;SDS011;64907;51.574;6.502;2023-03-23T02:56:01;3.72;;;3.45;;
76157;SDS011;64907;51.574;6.502;2023-03-23T02:58:28;3.85;;;3.55;;
76157;SDS011;64907;51.574;6.502;2023-03-23T03:00:53;5.53;;;4.00;;
76157;SDS011;64907;51.574;6.502;2023-03-23T03:03:19;3.70;;;3.40;;
76157;SDS011;64907;51.574;6.502;2023-03-23T03:08:31;4.78;;;3.58;;
76157;SDS011;64907;51.574;6.502;2023-03-23T03:11:03;3.83;;;3.53;;
76157;SDS011;64907;51.574;6.502;2023-03-23T03:18:34;4.60;;;3.78;;
76157;SDS011;64907;51.574;6.502;2023-03-23T03:21:03;4.32;;;3.92;;
76157;SDS011;64907;51.574;6.502;2023-03-23T03:23:29;4.25;;;3.95;;
76157;SDS011;64907;51.574;6.502;2023-03-23T03:25:55;3.85;;;3.60;;
76157;SDS011;64907;51.574;6.502;2023-03-23T03:28:22;4.45;;;3.80;;
76157;SDS011;64907;51.574;6.502;2023-03-23T03:30:52;4.38;;;3.80;;
76157;SDS011;64907;51.574;6.502;2023-03-23T03:33:19;4.07;;;3.78;;
76157;SDS011;64907;51.574;6.502;2023-03-23T03:35:45;5.15;;;4.65;;
76157;SDS011;64907;51.574;6.502;2023-03-23T03:38:10;3.70;;;3.50;;
76157;SDS011;64907;51.574;6.502;2023-03-23T03:40:36;3.80;;;3.60;;
76157;SDS011;64907;51.574;6.502;2023-03-23T03:43:02;3.80;;;3.60;;
76157;SDS011;64907;51.574;6.502;2023-03-23T03:45:28;4.13;;;3.92;;
76157;SDS011;64907;51.574;6.502;2023-03-23T03:47:53;4.10;;;3.70;;
76157;SDS011;64907;51.574;6.502;2023-03-23T03:50:18;4.68;;;4.28;;
76157;SDS011;64907;51.574;6.502;2023-03-23T03:52:43;3.90;;;3.55;;
76157;SDS011;64907;51.574;6.502;2023-03-23T03:55:09;3.57;;;3.27;;
76157;SDS011;64907;51.574;6.502;2023-03-23T03:57:35;3.40;;;3.20;;
76157;SDS011;64907;51.574;6.502;2023-03-23T04:00:00;3.47;;;3.17;;
76157;SDS011;64907;51.574;6.502;2023-03-23T04:02:25;3.78;;;3.47;;
76157;SDS011;64907;51.574;6.502;2023-03-23T04:04:51;3.70;;;3.40;;
76157;SDS011;64907;51.574;6.502;2023-03-23T04:07:19;3.60;;;3.35;;
76157;SDS011;64907;51.574;6.502;2023-03-23T04:09:45;4.72;;;4.30;;
76157;SDS011;64907;51.574;6.502;2023-03-23T04:12:13;4.15;;;3.33;;
76157;SDS011;64907;51.574;6.502;2023-03-23T04:14:38;3.42;;;3.20;;
76157;SDS011;64907;51.574;6.502;2023-03-23T04:17:03;3.70;;;3.50;;
76157;SDS011;64907;51.574;6.502;2023-03-23T04:19:29;3.13;;;2.92;;
76157;SDS011;64907;51.574;6.502;2023-03-23T04:21:57;3.10;;;2.90;;
76157;SDS011;64907;51.574;6.502;2023-03-23T04:24:23;3.17;;;3.05;;
76157;SDS011;64907;51.574;6.502;2023-03-23T04:26:49;3.78;;;3.47;;
76157;SDS011;64907;51.574;6.502;2023-03-23T04:29:16;3.40;;;3.20;;
76157;SDS011;64907;51.574;6.502;2023-03-23T04:31:42;3.40;;;3.10;;
76157;SDS011;64907;51.574;6.502;2023-03-23T04:34:09;3.38;;;3.03;;
76157;SDS011;64907;51.574;6.502;2023-03-23T04:36:38;3.58;;;3.28;;
76157;SDS011;64907;51.574;6.502;2023-03-23T04:39:03;3.17;;;2.97;;
76157;SDS011;64907;51.574;6.502;2023-03-23T04:41:31;6.18;;;3.83;;
76157;SDS011;64907;51.574;6.502;2023-03-23T04:43:57;4.10;;;3.80;;
76157;SDS011;64907;51.574;6.502;2023-03-23T04:46:25;3.13;;;2.90;;
76157;SDS011;64907;51.574;6.502;2023-03-23T04:48:53;3.30;;;3.10;;
76157;SDS011;64907;51.574;6.502;2023-03-23T04:51:19;3.65;;;3.35;;
76157;SDS011;64907;51.574;6.502;2023-03-23T04:53:44;3.17;;;2.97;;
76157;SDS011;64907;51.574;6.502;2023-03-23T04:56:10;3.10;;;2.90;;
76157;SDS011;64907;51.574;6.502;2023-03-23T04:58:35;5.77;;;3.07;;
76157;SDS011;64907;51.574;6.502;2023-03-23T05:01:00;3.65;;;3.00;;
76157;SDS011;64907;51.574;6.502;2023-03-23T05:03:26;3.30;;;3.00;;
76157;SDS011;64907;51.574;6.502;2023-03-23T05:05:52;3.90;;;3.60;;
76157;SDS011;64907;51.574;6.502;2023-03-23T05:08:22;3.30;;;3.10;;
76157;SDS011;64907;51.574;6.502;2023-03-23T05:10:51;3.65;;;3.20;;
76157;SDS011;64907;51.574;6.502;2023-03-23T05:13:17;4.35;;;3.20;;
76157;SDS011;64907;51.574;6.502;2023-03-23T05:15:42;3.53;;;3.27;;
76157;SDS011;64907;51.574;6.502;2023-03-23T05:18:07;3.03;;;2.83;;
76157;SDS011;64907;51.574;6.502;2023-03-23T05:20:34;4.22;;;3.75;;
76157;SDS011;64907;51.574;6.502;2023-03-23T05:22:59;3.50;;;3.20;;
76157;SDS011;64907;51.574;6.502;2023-03-23T05:25:24;4.20;;;3.13;;
76157;SDS011;64907;51.574;6.502;2023-03-23T05:27:51;3.53;;;3.22;;
76157;SDS011;64907;51.574;6.502;2023-03-23T05:30:18;5.28;;;3.35;;
76157;SDS011;64907;51.574;6.502;2023-03-23T05:32:43;3.25;;;3.05;;
76157;SDS011;64907;51.574;6.502;2023-03-23T05:35:10;3.60;;;2.85;;
76157;SDS011;64907;51.574;6.502;2023-03-23T05:37:36;4.50;;;3.03;;
76157;SDS011;64907;51.574;6.502;2023-03-23T05:40:02;2.85;;;2.70;;
76157;SDS011;64907;51.574;6.502;2023-03-23T05:42:31;4.25;;;3.40;;
76157;SDS011;64907;51.574;6.502;2023-03-23T05:44:57;8.30;;;3.10;;
76157;SDS011;64907;51.574;6.502;2023-03-23T05:47:23;5.18;;;3.20;;
76157;SDS011;64907;51.574;6.502;2023-03-23T05:49:48;3.30;;;3.00;;
76157;SDS011;64907;51.574;6.502;2023-03-23T05:52:13;5.50;;;3.30;;
76157;SDS011;64907;51.574;6.502;2023-03-23T05:54:39;3.03;;;2.53;;
76157;SDS011;64907;51.574;6.502;2023-03-23T05:57:04;3.72;;;3.08;;
76157;SDS011;64907;51.574;6.502;2023-03-23T05:59:30;3.53;;;2.40;;
76157;SDS011;64907;51.574;6.502;2023-03-23T06:01:55;3.50;;;2.83;;
76157;SDS011;64907;51.574;6.502;2023-03-23T06:04:22;3.13;;;2.78;;
76157;SDS011;64907;51.574;6.502;2023-03-23T06:06:49;4.90;;;2.75;;
76157;SDS011;64907;51.574;6.502;2023-03-23T06:09:15;3.25;;;3.05;;
76157;SDS011;64907;51.574;6.502;2023-03-23T06:11:41;4.63;;;3.00;;
76157;SDS011;64907;51.574;6.502;2023-03-23T06:14:07;3.10;;;2.90;;
76157;SDS011;64907;51.574;6.502;2023-03-23T06:16:32;7.80;;;3.40;;
76157;SDS011;64907;51.574;6.502;2023-03-23T06:18:57;3.87;;;2.30;;
76157;SDS011;64907;51.574;6.502;2023-03-23T06:21:25;5.65;;;2.95;;
76157;SDS011;64907;51.574;6.502;2023-03-23T06:23:50;5.70;;;2.70;;
76157;SDS011;64907;51.574;6.502;2023-03-23T06:26:15;2.92;;;2.50;;
76157;SDS011;64907;51.574;6.502;2023-03-23T06:28:42;3.15;;;2.15;;
76157;SDS011;64907;51.574;6.502;2023-03-23T06:31:07;5.95;;;2.72;;
76157;SDS011;64907;51.574;6.502;2023-03-23T06:33:33;4.03;;;2.65;;
76157;SDS011;64907;51.574;6.502;2023-03-23T06:35:59;2.85;;;2.28;;
76157;SDS011;64907;51.574;6.502;2023-03-23T06:38:24;3.75;;;2.63;;
76157;SDS011;64907;51.574;6.502;2023-03-23T06:40:51;4.10;;;2.13;;
76157;SDS011;64907;51.574;6.502;2023-03-23T06:43:17;4.68;;;2.80;;
76157;SDS011;64907;51.574;6.502;2023-03-23T06:45:42;4.13;;;2.28;;
76157;SDS011;64907;51.574;6.502;2023-03-23T06:48:07;4.83;;;2.37;;
76157;SDS011;64907;51.574;6.502;2023-03-23T06:50:33;3.85;;;2.38;;
76157;SDS011;64907;51.574;6.502;2023-03-23T06:52:58;3.78;;;2.17;;
76157;SDS011;64907;51.574;6.502;2023-03-23T06:55:23;4.00;;;2.55;;
76157;SDS011;64907;51.574;6.502;2023-03-23T06:57:48;5.95;;;2.40;;
76157;SDS011;64907;51.574;6.502;2023-03-23T07:00:14;5.03;;;2.15;;
76157;SDS011;64907;51.574;6.502;2023-03-23T07:02:40;4.18;;;2.15;;
76157;SDS011;64907;51.574;6.502;2023-03-23T07:05:06;4.03;;;2.65;;
76157;SDS011;64907;51.574;6.502;2023-03-23T07:07:32;3.38;;;2.20;;
76157;SDS011;64907;51.574;6.502;2023-03-23T07:09:57;8.60;;;2.67;;
76157;SDS011;64907;51.574;6.502;2023-03-23T07:12:24;9.27;;;2.63;;
76157;SDS011;64907;51.574;6.502;2023-03-23T07:14:49;2.70;;;1.83;;
76157;SDS011;64907;51.574;6.502;2023-03-23T07:17:16;3.83;;;2.13;;
76157;SDS011;64907;51.574;6.502;2023-03-23T07:19:41;4.10;;;2.00;;
76157;SDS011;64907;51.574;6.502;2023-03-23T07:22:06;5.88;;;2.28;;
76157;SDS011;64907;51.574;6.502;2023-03-23T07:24:32;3.53;;;1.92;;
76157;SDS011;64907;51.574;6.502;2023-03-23T07:26:58;4.90;;;1.98;;
76157;SDS011;64907;51.574;6.502;2023-03-23T07:29:23;5.85;;;2.13;;
76157;SDS011;64907;51.574;6.502;2023-03-23T07:31:48;7.60;;;2.20;;
76157;SDS011;64907;51.574;6.502;2023-03-23T07:34:13;3.70;;;1.93;;
76157;SDS011;64907;51.574;6.502;2023-03-23T07:36:39;5.15;;;2.10;;
76157;SDS011;64907;51.574;6.502;2023-03-23T07:39:04;4.13;;;2.07;;
76157;SDS011;64907;51.574;6.502;2023-03-23T07:41:33;5.82;;;2.03;;
76157;SDS011;64907;51.574;6.502;2023-03-23T07:43:58;4.40;;;2.42;;
76157;SDS011;64907;51.574;6.502;2023-03-23T07:46:23;2.50;;;1.65;;
76157;SDS011;64907;51.574;6.502;2023-03-23T07:48:49;3.58;;;2.25;;
76157;SDS011;64907;51.574;6.502;2023-03-23T07:51:14;3.55;;;1.90;;
76157;SDS011;64907;51.574;6.502;2023-03-23T07:53:41;5.30;;;2.05;;
76157;SDS011;64907;51.574;6.502;2023-03-23T07:56:09;2.20;;;2.00;;
76157;SDS011;64907;51.574;6.502;2023-03-23T07:58:34;4.93;;;2.25;;
76157;SDS011;64907;51.574;6.502;2023-03-23T08:01:02;3.67;;;2.13;;
76157;SDS011;64907;51.574;6.502;2023-03-23T08:03:27;3.38;;;1.85;;
76157;SDS011;64907;51.574;6.502;2023-03-23T08:05:52;6.47;;;2.13;;
76157;SDS011;64907;51.574;6.502;2023-03-23T08:08:18;3.20;;;1.90;;
76157;SDS011;64907;51.574;6.502;2023-03-23T08:10:44;7.53;;;2.40;;
76157;SDS011;64907;51.574;6.502;2023-03-23T08:13:10;4.20;;;2.13;;
76157;SDS011;64907;51.574;6.502;2023-03-23T08:15:35;6.33;;;2.60;;
76157;SDS011;64907;51.574;6.502;2023-03-23T08:18:02;3.53;;;2.05;;
76157;SDS011;64907;51.574;6.502;2023-03-23T08:20:27;4.57;;;2.08;;
76157;SDS011;64907;51.574;6.502;2023-03-23T08:22:53;8.57;;;2.75;;
76157;SDS011;64907;51.574;6.502;2023-03-23T08:25:20;3.00;;;2.72;;
76157;SDS011;64907;51.574;6.502;2023-03-23T08:27:46;7.00;;;2.22;;
76157;SDS011;64907;51.574;6.502;2023-03-23T08:30:12;7.40;;;2.53;;
76157;SDS011;64907;51.574;6.502;2023-03-23T08:32:38;6.68;;;2.67;;
76157;SDS011;64907;51.574;6.502;2023-03-23T08:35:04;5.75;;;2.35;;
76157;SDS011;64907;51.574;6.502;2023-03-23T08:37:29;3.47;;;2.00;;
76157;SDS011;64907;51.574;6.502;2023-03-23T08:39:55;5.00;;;2.50;;
76157;SDS011;64907;51.574;6.502;2023-03-23T08:42:22;3.92;;;2.20;;
76157;SDS011;64907;51.574;6.502;2023-03-23T08:44:48;4.55;;;2.40;;
76157;SDS011;64907;51.574;6.502;2023-03-23T08:47:13;3.55;;;2.05;;
76157;SDS011;64907;51.574;6.502;2023-03-23T08:49:38;3.13;;;2.37;;
76157;SDS011;64907;51.574;6.502;2023-03-23T08:52:04;7.50;;;2.77;;
76157;SDS011;64907;51.574;6.502;2023-03-23T08:54:29;7.90;;;2.55;;
76157;SDS011;64907;51.574;6.502;2023-03-23T08:56:58;7.97;;;1.65;;
76157;SDS011;64907;51.574;6.502;2023-03-23T08:59:24;2.17;;;0.98;;
76157;SDS011;64907;51.574;6.502;2023-03-23T09:01:50;3.30;;;1.63;;
76157;SDS011;64907;51.574;6.502;2023-03-23T09:04:15;5.90;;;1.85;;
76157;SDS011;64907;51.574;6.502;2023-03-23T09:06:40;3.27;;;1.40;;
76157;SDS011;64907;51.574;6.502;2023-03-23T09:09:06;3.88;;;1.83;;
76157;SDS011;64907;51.574;6.502;2023-03-23T09:11:32;7.15;;;1.98;;
76157;SDS011;64907;51.574;6.502;2023-03-23T09:13:57;5.40;;;2.13;;
76157;SDS011;64907;51.574;6.502;2023-03-23T09:16:22;5.90;;;1.70;;
76157;SDS011;64907;51.574;6.502;2023-03-23T09:18:47;3.93;;;1.40;;
76157;SDS011;64907;51.574;6.502;2023-03-23T09:21:15;1.92;;;1.23;;
76157;SDS011;64907;51.574;6.502;2023-03-23T09:23:40;3.83;;;1.40;;
76157;SDS011;64907;51.574;6.502;2023-03-23T09:26:09;1.88;;;1.38;;
76157;SDS011;64907;51.574;6.502;2023-03-23T09:28:34;4.23;;;1.50;;
76157;SDS011;64907;51.574;6.502;2023-03-23T09:30:59;1.77;;;1.10;;
76157;SDS011;64907;51.574;6.502;2023-03-23T09:33:25;1.75;;;1.33;;
76157;SDS011;64907;51.574;6.502;2023-03-23T09:35:50;4.72;;;1.42;;
76157;SDS011;64907;51.574;6.502;2023-03-23T09:38:16;1.07;;;0.97;;
76157;SDS011;64907;51.574;6.502;2023-03-23T09:53:44;2.63;;;1.30;;
76157;SDS011;64907;51.574;6.502;2023-03-23T09:56:11;1.58;;;0.90;;
76157;SDS011;64907;51.574;6.502;2023-03-23T09:58:42;1.63;;;1.10;;
76157;SDS011;64907;51.574;6.502;2023-03-23T10:01:10;2.45;;;1.10;;
76157;SDS011;64907;51.574;6.502;2023-03-23T10:03:39;2.40;;;1.13;;
76157;SDS011;64907;51.574;6.502;2023-03-23T10:06:07;5.40;;;1.40;;
76157;SDS011;64907;51.574;6.502;2023-03-23T10:08:34;3.70;;;1.40;;
76157;SDS011;64907;51.574;6.502;2023-03-23T10:15:53;1.05;;;1.05;;
76157;SDS011;64907;51.574;6.502;2023-03-23T10:18:27;3.42;;;1.90;;
76157;SDS011;64907;51.574;6.502;2023-03-23T10:20:55;3.60;;;1.50;;
76157;SDS011;64907;51.574;6.502;2023-03-23T10:28:24;2.05;;;1.08;;
76157;SDS011;64907;51.574;6.502;2023-03-23T10:30:54;1.85;;;1.40;;
76157;SDS011;64907;51.574;6.502;2023-03-23T10:33:23;4.85;;;1.15;;
76157;SDS011;64907;51.574;6.502;2023-03-23T10:35:58;4.30;;;1.80;;
76157;SDS011;64907;51.574;6.502;2023-03-23T10:38:28;2.90;;;1.17;;
76157;SDS011;64907;51.574;6.502;2023-03-23T10:41:14;3.75;;;1.65;;
76157;SDS011;64907;51.574;6.502;2023-03-23T10:43:41;1.83;;;1.45;;
76157;SDS011;64907;51.574;6.502;2023-03-23T10:48:43;2.13;;;1.55;;
76157;SDS011;64907;51.574;6.502;2023-03-23T10:51:12;5.20;;;1.30;;
76157;SDS011;64907;51.574;6.502;2023-03-23T10:54:00;2.42;;;1.10;;
76157;SDS011;64907;51.574;6.502;2023-03-23T10:56:25;4.25;;;1.08;;
76157;SDS011;64907;51.574;6.502;2023-03-23T10:58:50;1.38;;;1.27;;
76157;SDS011;64907;51.574;6.502;2023-03-23T11:01:17;1.63;;;1.10;;
76157;SDS011;64907;51.574;6.502;2023-03-23T11:03:47;2.67;;;1.23;;
76157;SDS011;64907;51.574;6.502;2023-03-23T11:06:23;1.65;;;1.23;;
76157;SDS011;64907;51.574;6.502;2023-03-23T11:08:54;2.30;;;1.30;;
76157;SDS011;64907;51.574;6.502;2023-03-23T11:11:30;1.73;;;1.30;;
76157;SDS011;64907;51.574;6.502;2023-03-23T11:13:57;1.52;;;1.17;;
76157;SDS011;64907;51.574;6.502;2023-03-23T11:18:54;2.00;;;1.10;;
76157;SDS011;64907;51.574;6.502;2023-03-23T11:21:20;1.67;;;1.23;;
76157;SDS011;64907;51.574;6.502;2023-03-23T11:23:50;2.95;;;1.40;;
76157;SDS011;64907;51.574;6.502;2023-03-23T11:26:21;2.45;;;1.27;;
76157;SDS011;64907;51.574;6.502;2023-03-23T11:31:12;1.52;;;1.30;;
76157;SDS011;64907;51.574;6.502;2023-03-23T11:34:20;5.45;;;1.20;;
76157;SDS011;64907;51.574;6.502;2023-03-23T11:36:31;2.05;;;1.02;;
76157;SDS011;64907;51.574;6.502;2023-03-23T11:38:57;5.13;;;1.23;;
76157;SDS011;64907;51.574;6.502;2023-03-23T11:41:23;1.88;;;1.20;;
76157;SDS011;64907;51.574;6.502;2023-03-23T11:43:51;2.05;;;1.27;;
76157;SDS011;64907;51.574;6.502;2023-03-23T11:48:51;2.47;;;1.15;;
76157;SDS011;64907;51.574;6.502;2023-03-23T11:51:38;1.42;;;1.33;;
76157;SDS011;64907;51.574;6.502;2023-03-23T11:56:31;1.80;;;1.17;;
76157;SDS011;64907;51.574;6.502;2023-03-23T11:58:58;1.33;;;1.20;;
76157;SDS011;64907;51.574;6.502;2023-03-23T12:12:13;2.15;;;1.25;;
76157;SDS011;64907;51.574;6.502;2023-03-23T12:17:11;1.35;;;1.27;;
76157;SDS011;64907;51.574;6.502;2023-03-23T12:35:28;3.42;;;1.48;;
76157;SDS011;64907;51.574;6.502;2023-03-23T12:38:22;2.08;;;1.92;;
76157;SDS011;64907;51.574;6.502;2023-03-23T12:43:23;1.70;;;1.60;;
76157;SDS011;64907;51.574;6.502;2023-03-23T12:48:37;2.05;;;1.90;;
76157;SDS011;64907;51.574;6.502;2023-03-23T12:53:33;2.03;;;1.80;;
76157;SDS011;64907;51.574;6.502;2023-03-23T12:56:15;2.08;;;1.92;;
76157;SDS011;64907;51.574;6.502;2023-03-23T12:58:43;2.10;;;1.90;;
76157;SDS011;64907;51.574;6.502;2023-03-23T13:01:10;2.00;;;1.90;;
76157;SDS011;64907;51.574;6.502;2023-03-23T13:03:39;1.95;;;1.85;;
76157;SDS011;64907;51.574;6.502;2023-03-23T13:06:10;1.80;;;1.70;;
76157;SDS011;64907;51.574;6.502;2023-03-23T13:08:44;1.95;;;1.83;;
76157;SDS011;64907;51.574;6.502;2023-03-23T13:11:17;3.88;;;2.00;;
76157;SDS011;64907;51.574;6.502;2023-03-23T13:13:53;4.15;;;2.28;;
76157;SDS011;64907;51.574;6.502;2023-03-23T13:21:30;5.38;;;2.30;;
76157;SDS011;64907;51.574;6.502;2023-03-23T13:23:58;2.42;;;2.22;;
76157;SDS011;64907;51.574;6.502;2023-03-23T13:26:25;5.45;;;2.33;;
76157;SDS011;64907;51.574;6.502;2023-03-23T13:31:23;3.17;;;2.22;;
76157;SDS011;64907;51.574;6.502;2023-03-23T13:33:57;4.45;;;2.75;;
76157;SDS011;64907;51.574;6.502;2023-03-23T13:36:26;2.92;;;2.08;;
76157;SDS011;64907;51.574;6.502;2023-03-23T13:38:52;5.47;;;2.67;;
76157;SDS011;64907;51.574;6.502;2023-03-23T13:41:18;4.13;;;2.40;;
76157;SDS011;64907;51.574;6.502;2023-03-23T13:43:45;3.85;;;2.30;;
76157;SDS011;64907;51.574;6.502;2023-03-23T13:46:12;3.78;;;2.63;;
76157;SDS011;64907;51.574;6.502;2023-03-23T13:48:48;4.00;;;2.40;;
76157;SDS011;64907;51.574;6.502;2023-03-23T13:56:40;3.72;;;2.40;;
76157;SDS011;64907;51.574;6.502;2023-03-23T14:01:49;3.22;;;2.50;;
76157;SDS011;64907;51.574;6.502;2023-03-23T14:04:16;4.13;;;2.55;;
76157;SDS011;64907;51.574;6.502;2023-03-23T14:06:43;6.38;;;2.72;;
76157;SDS011;64907;51.574;6.502;2023-03-23T14:09:15;3.38;;;2.67;;
76157;SDS011;64907;51.574;6.502;2023-03-23T14:11:46;5.80;;;2.67;;
76157;SDS011;64907;51.574;6.502;2023-03-23T14:14:29;3.42;;;2.25;;
76157;SDS011;64907;51.574;6.502;2023-03-23T14:17:05;3.55;;;2.20;;
76157;SDS011;64907;51.574;6.502;2023-03-23T14:19:30;2.70;;;2.45;;
76157;SDS011;64907;51.574;6.502;2023-03-23T14:21:57;5.68;;;2.83;;
76157;SDS011;64907;51.574;6.502;2023-03-23T14:24:24;6.75;;;3.08;;
76157;SDS011;64907;51.574;6.502;2023-03-23T14:26:50;2.80;;;2.22;;
76157;SDS011;64907;51.574;6.502;2023-03-23T14:29:17;3.10;;;2.45;;
76157;SDS011;64907;51.574;6.502;2023-03-23T14:31:42;4.95;;;2.20;;
76157;SDS011;64907;51.574;6.502;2023-03-23T14:34:13;4.80;;;2.40;;
76157;SDS011;64907;51.574;6.502;2023-03-23T14:36:38;3.70;;;2.55;;
76157;SDS011;64907;51.574;6.502;2023-03-23T14:39:07;3.47;;;2.22;;
76157;SDS011;64907;51.574;6.502;2023-03-23T14:41:36;3.42;;;2.33;;
76157;SDS011;64907;51.574;6.502;2023-03-23T14:44:02;4.72;;;2.10;;
76157;SDS011;64907;51.574;6.502;2023-03-23T14:46:29;3.25;;;2.22;;
76157;SDS011;64907;51.574;6.502;2023-03-23T14:48:55;3.90;;;2.95;;
76157;SDS011;64907;51.574;6.502;2023-03-23T14:51:21;2.63;;;2.42;;
76157;SDS011;64907;51.574;6.502;2023-03-23T14:53:46;4.77;;;2.77;;
76157;SDS011;64907;51.574;6.502;2023-03-23T14:56:17;3.30;;;2.40;;
76157;SDS011;64907;51.574;6.502;2023-03-23T14:58:44;3.63;;;2.33;;
76157;SDS011;64907;51.574;6.502;2023-03-23T15:01:10;3.78;;;2.50;;
76157;SDS011;64907;51.574;6.502;2023-03-23T15:03:43;3.20;;;2.42;;
76157;SDS011;64907;51.574;6.502;2023-03-23T15:06:13;3.45;;;2.40;;
76157;SDS011;64907;51.574;6.502;2023-03-23T15:08:39;2.67;;;2.40;;
76157;SDS011;64907;51.574;6.502;2023-03-23T15:13:44;3.22;;;2.35;;
76157;SDS011;64907;51.574;6.502;2023-03-23T15:16:14;3.88;;;1.90;;
76157;SDS011;64907;51.574;6.502;2023-03-23T15:18:39;6.35;;;2.28;;
76157;SDS011;64907;51.574;6.502;2023-03-23T15:21:18;2.70;;;1.80;;
76157;SDS011;64907;51.574;6.502;2023-03-23T15:23:45;3.72;;;2.45;;
76157;SDS011;64907;51.574;6.502;2023-03-23T15:26:17;4.20;;;2.17;;
76157;SDS011;64907;51.574;6.502;2023-03-23T15:28:43;2.72;;;1.58;;
76157;SDS011;64907;51.574;6.502;2023-03-23T15:31:09;5.03;;;2.33;;
76157;SDS011;64907;51.574;6.502;2023-03-23T15:33:37;2.00;;;1.80;;
76157;SDS011;64907;51.574;6.502;2023-03-23T15:36:07;3.67;;;1.90;;
76157;SDS011;64907;51.574;6.502;2023-03-23T15:38:33;2.97;;;1.98;;
76157;SDS011;64907;51.574;6.502;2023-03-23T15:41:00;4.57;;;2.42;;
76157;SDS011;64907;51.574;6.502;2023-03-23T15:43:26;3.42;;;1.77;;
76157;SDS011;64907;51.574;6.502;2023-03-23T15:48:31;3.60;;;2.20;;
76157;SDS011;64907;51.574;6.502;2023-03-23T15:50:56;4.25;;;1.85;;
76157;SDS011;64907;51.574;6.502;2023-03-23T15:53:26;2.03;;;1.77;;
76157;SDS011;64907;51.574;6.502;2023-03-23T15:55:52;3.38;;;1.55;;
76157;SDS011;64907;51.574;6.502;2023-03-23T15:58:17;4.18;;;2.15;;
76157;SDS011;64907;51.574;6.502;2023-03-23T16:00:42;6.47;;;2.03;;
76157;SDS011;64907;51.574;6.502;2023-03-23T16:03:10;3.95;;;2.20;;
76157;SDS011;64907;51.574;6.502;2023-03-23T16:05:37;3.13;;;2.55;;
76157;SDS011;64907;51.574;6.502;2023-03-23T16:08:02;4.72;;;2.45;;
76157;SDS011;64907;51.574;6.502;2023-03-23T16:10:28;5.18;;;2.70;;
76157;SDS011;64907;51.574;6.502;2023-03-23T16:12:53;3.70;;;2.50;;
76157;SDS011;64907;51.574;6.502;2023-03-23T16:15:19;5.00;;;3.08;;
76157;SDS011;64907;51.574;6.502;2023-03-23T16:17:44;3.85;;;2.25;;
76157;SDS011;64907;51.574;6.502;2023-03-23T16:20:18;4.70;;;2.78;;
76157;SDS011;64907;51.574;6.502;2023-03-23T16:22:43;4.05;;;2.35;;
76157;SDS011;64907;51.574;6.502;2023-03-23T16:25:09;3.63;;;2.17;;
76157;SDS011;64907;51.574;6.502;2023-03-23T16:27:35;8.43;;;2.70;;
76157;SDS011;64907;51.574;6.502;2023-03-23T16:30:01;4.53;;;2.65;;
76157;SDS011;64907;51.574;6.502;2023-03-23T16:32:27;5.13;;;2.67;;
76157;SDS011;64907;51.574;6.502;2023-03-23T16:34:53;4.63;;;2.50;;
76157;SDS011;64907;51.574;6.502;2023-03-23T16:37:18;7.57;;;2.97;;
76157;SDS011;64907;51.574;6.502;2023-03-23T16:39:43;8.10;;;3.03;;
76157;SDS011;64907;51.574;6.502;2023-03-23T16:42:08;7.37;;;2.20;;
76157;SDS011;64907;51.574;6.502;2023-03-23T16:44:33;5.43;;;2.80;;
76157;SDS011;64907;51.574;6.502;2023-03-23T16:46:59;3.97;;;2.45;;